sensor_id;sensor_type;location;lat;lon;timestamp;pressure;altitude;pressure_sealevel;temperature;humidity
57799;BME280;43626;53.866;30.298;2022-10-13T00:04:08;1032.3;;;3.9;60.6
57799;BME280;43626;53.866;30.298;2022-10-13T00:08:57;1032.3;;;3.9;60.7
57799;BME280;43626;53.866;30.298;2022-10-13T00:14:10;1032.4;;;3.9;60.6
57799;BME280;43626;53.866;30.298;2022-10-13T00:19:10;1032.4;;;3.8;60.9
57799;BME280;43626;53.866;30.298;2022-10-13T00:23:38;1032.4;;;3.8;60.7
57799;BME280;43626;53.866;30.298;2022-10-13T00:28:48;1032.4;;;3.8;60.6
57799;BME280;43626;53.866;30.298;2022-10-13T00:34:18;1032.5;;;3.8;60.7
57799;BME280;43626;53.866;30.298;2022-10-13T00:39:16;1032.5;;;3.7;60.7
57799;BME280;43626;53.866;30.298;2022-10-13T00:45:22;1032.5;;;3.7;60.6
57799;BME280;43626;53.866;30.298;2022-10-13T00:48:54;1032.5;;;3.7;60.6
57799;BME280;43626;53.866;30.298;2022-10-13T00:54:21;1032.5;;;3.6;60.7
57799;BME280;43626;53.866;30.298;2022-10-13T00:59:21;1032.5;;;3.6;60.8
57799;BME280;43626;53.866;30.298;2022-10-13T01:03:38;1032.4;;;3.6;61
57799;BME280;43626;53.866;30.298;2022-10-13T01:08:54;1032.4;;;3.5;60.9
57799;BME280;43626;53.866;30.298;2022-10-13T01:13:39;1032.4;;;3.5;61.9
57799;BME280;43626;53.866;30.298;2022-10-13T01:18:47;1032.4;;;3.4;62.3
57799;BME280;43626;53.866;30.298;2022-10-13T01:24:05;1032.5;;;3.4;62.1
57799;BME280;43626;53.866;30.298;2022-10-13T01:29:06;1032.5;;;3.4;62.3
57799;BME280;43626;53.866;30.298;2022-10-13T01:34:20;1032.5;;;3.4;62.3
57799;BME280;43626;53.866;30.298;2022-10-13T01:39:06;1032.6;;;3.4;62.1
57799;BME280;43626;53.866;30.298;2022-10-13T01:43:56;1032.6;;;3.3;62
57799;BME280;43626;53.866;30.298;2022-10-13T01:49:16;1032.6;;;3.3;61.9
57799;BME280;43626;53.866;30.298;2022-10-13T01:54:06;1032.6;;;3.3;62
57799;BME280;43626;53.866;30.298;2022-10-13T01:59:20;1032.6;;;3.3;61.8
57799;BME280;43626;53.866;30.298;2022-10-13T02:03:51;1032.7;;;3.2;61.6
57799;BME280;43626;53.866;30.298;2022-10-13T02:09:13;1032.7;;;3.2;61.4
57799;BME280;43626;53.866;30.298;2022-10-13T02:14:19;1032.7;;;3.1;61.1
57799;BME280;43626;53.866;30.298;2022-10-13T02:19:10;1032.7;;;3.1;61.2
57799;BME280;43626;53.866;30.298;2022-10-13T02:23:50;1032.8;;;3;61.1
57799;BME280;43626;53.866;30.298;2022-10-13T02:28:50;1032.7;;;3;61.2
57799;BME280;43626;53.866;30.298;2022-10-13T02:34:00;1032.8;;;3;61.3
57799;BME280;43626;53.866;30.298;2022-10-13T02:38:56;1032.8;;;3;61.6
57799;BME280;43626;53.866;30.298;2022-10-13T02:43:58;1032.8;;;3;62.2
57799;BME280;43626;53.866;30.298;2022-10-13T02:49:12;1032.9;;;3;62.8
57799;BME280;43626;53.866;30.298;2022-10-13T02:54:00;1032.9;;;3;63
57799;BME280;43626;53.866;30.298;2022-10-13T02:59:00;1032.9;;;3;63.5
57799;BME280;43626;53.866;30.298;2022-10-13T03:04:22;1032.9;;;2.9;63.7
57799;BME280;43626;53.866;30.298;2022-10-13T03:09:22;1033;;;2.9;63.6
57799;BME280;43626;53.866;30.298;2022-10-13T03:14:24;1033;;;2.9;63.8
57799;BME280;43626;53.866;30.298;2022-10-13T03:19:00;1033;;;2.9;64
57799;BME280;43626;53.866;30.298;2022-10-13T03:23:50;1033;;;2.9;63.7
57799;BME280;43626;53.866;30.298;2022-10-13T03:29:14;1033;;;2.9;63.6
57799;BME280;43626;53.866;30.298;2022-10-13T03:34:24;1032.9;;;3;63.5
57799;BME280;43626;53.866;30.298;2022-10-13T03:38:48;1032.9;;;3;63.6
57799;BME280;43626;53.866;30.298;2022-10-13T03:44:00;1032.9;;;3;63.7
57799;BME280;43626;53.866;30.298;2022-10-13T03:49:10;1032.9;;;3;64
57799;BME280;43626;53.866;30.298;2022-10-13T03:53:38;1033;;;3;64.1
57799;BME280;43626;53.866;30.298;2022-10-13T03:59:00;1033;;;3;64.2
57799;BME280;43626;53.866;30.298;2022-10-13T04:03:40;1033.1;;;3;64.1
57799;BME280;43626;53.866;30.298;2022-10-13T04:09:10;1033.1;;;3;64.1
57799;BME280;43626;53.866;30.298;2022-10-13T04:14:22;1033;;;3;64.2
57799;BME280;43626;53.866;30.298;2022-10-13T04:19:01;1033;;;3.1;64
57799;BME280;43626;53.866;30.298;2022-10-13T04:24:24;1033;;;3.1;63.8
57799;BME280;43626;53.866;30.298;2022-10-13T04:29:22;1033;;;3.1;64
57799;BME280;43626;53.866;30.298;2022-10-13T04:33:52;1033.1;;;3.2;65
57799;BME280;43626;53.866;30.298;2022-10-13T04:39:00;1033.1;;;3.3;64.2
57799;BME280;43626;53.866;30.298;2022-10-13T04:43:50;1033.1;;;3.3;64.5
57799;BME280;43626;53.866;30.298;2022-10-13T04:49:24;1033.1;;;3.3;64.7
57799;BME280;43626;53.866;30.298;2022-10-13T04:54:12;1033.1;;;3.4;64.8
57799;BME280;43626;53.866;30.298;2022-10-13T04:59:14;1033.1;;;3.4;65.2
57799;BME280;43626;53.866;30.298;2022-10-13T05:04:14;1033.2;;;3.4;65.2
57799;BME280;43626;53.866;30.298;2022-10-13T05:09:06;1033.2;;;3.4;65.4
57799;BME280;43626;53.866;30.298;2022-10-13T05:13:58;1033.2;;;3.4;65.6
57799;BME280;43626;53.866;30.298;2022-10-13T05:19:12;1033.2;;;3.5;65.5
57799;BME280;43626;53.866;30.298;2022-10-13T05:23:40;1033.2;;;3.6;65.4
57799;BME280;43626;53.866;30.298;2022-10-13T05:28:40;1033.2;;;3.6;65
57799;BME280;43626;53.866;30.298;2022-10-13T05:34:00;1033.3;;;3.7;64.9
57799;BME280;43626;53.866;30.298;2022-10-13T05:39:12;1033.3;;;3.7;64.8
57799;BME280;43626;53.866;30.298;2022-10-13T05:44:12;1033.3;;;3.7;64.7
57799;BME280;43626;53.866;30.298;2022-10-13T05:48:40;1033.3;;;3.8;64.7
57799;BME280;43626;53.866;30.298;2022-10-13T05:54:01;1033.4;;;3.8;64.5
57799;BME280;43626;53.866;30.298;2022-10-13T05:59:15;1033.4;;;3.8;64.7
57799;BME280;43626;53.866;30.298;2022-10-13T06:04:25;1033.4;;;3.8;64.8
57799;BME280;43626;53.866;30.298;2022-10-13T06:08:48;1033.4;;;3.9;64.8
57799;BME280;43626;53.866;30.298;2022-10-13T06:14:12;1033.4;;;4;64.7
57799;BME280;43626;53.866;30.298;2022-10-13T06:18:48;1033.4;;;4.2;65.1
57799;BME280;43626;53.866;30.298;2022-10-13T06:23:50;1033.4;;;4.4;64.9
57799;BME280;43626;53.866;30.298;2022-10-13T06:29:04;1033.5;;;4.6;65
57799;BME280;43626;53.866;30.298;2022-10-13T06:34:14;1033.5;;;4.8;65
57799;BME280;43626;53.866;30.298;2022-10-13T06:39:14;1033.5;;;4.9;65.3
57799;BME280;43626;53.866;30.298;2022-10-13T06:43:44;1033.6;;;5;65.3
57799;BME280;43626;53.866;30.298;2022-10-13T06:48:42;1033.6;;;5.1;65.3
57799;BME280;43626;53.866;30.298;2022-10-13T06:54:26;1033.7;;;5.2;65.3
57799;BME280;43626;53.866;30.298;2022-10-13T06:59:28;1033.7;;;5.3;65.3
57799;BME280;43626;53.866;30.298;2022-10-13T07:03:42;1033.7;;;5.4;65.2
57799;BME280;43626;53.866;30.298;2022-10-13T07:09:04;1033.8;;;5.5;65.6
57799;BME280;43626;53.866;30.298;2022-10-13T07:13:54;1033.7;;;5.7;65.9
57799;BME280;43626;53.866;30.298;2022-10-13T07:19:26;1033.7;;;5.9;65.8
57799;BME280;43626;53.866;30.298;2022-10-13T07:24:18;1033.7;;;6;65.7
57799;BME280;43626;53.866;30.298;2022-10-13T07:29:14;1033.7;;;6.2;65.8
57799;BME280;43626;53.866;30.298;2022-10-13T07:34:02;1033.7;;;6.3;65.9
57799;BME280;43626;53.866;30.298;2022-10-13T07:39:14;1033.7;;;6.5;66
57799;BME280;43626;53.866;30.298;2022-10-13T07:43:53;1033.7;;;6.7;65.9
57799;BME280;43626;53.866;30.298;2022-10-13T07:49:18;1033.7;;;6.9;65.9
57799;BME280;43626;53.866;30.298;2022-10-13T07:54:26;1033.7;;;7.1;66
57799;BME280;43626;53.866;30.298;2022-10-13T07:59:18;1033.7;;;7.2;65.5
57799;BME280;43626;53.866;30.298;2022-10-13T08:03:42;1033.7;;;7.4;65.5
57799;BME280;43626;53.866;30.298;2022-10-13T08:09:28;1033.7;;;7.6;65.4
57799;BME280;43626;53.866;30.298;2022-10-13T08:14:28;1033.8;;;7.7;65.6
57799;BME280;43626;53.866;30.298;2022-10-13T08:19:28;1033.8;;;7.8;65.1
57799;BME280;43626;53.866;30.298;2022-10-13T08:23:54;1033.8;;;8;64.8
57799;BME280;43626;53.866;30.298;2022-10-13T08:29:28;1033.8;;;8.1;65
57799;BME280;43626;53.866;30.298;2022-10-13T08:34:28;1033.8;;;8.2;65
57799;BME280;43626;53.866;30.298;2022-10-13T08:39:02;1033.8;;;8.3;65.1
57799;BME280;43626;53.866;30.298;2022-10-13T08:44:03;1033.8;;;8.5;65.3
57799;BME280;43626;53.866;30.298;2022-10-13T08:48:52;1033.8;;;8.6;65.2
57799;BME280;43626;53.866;30.298;2022-10-13T08:54:03;1033.7;;;8.7;65.3
57799;BME280;43626;53.866;30.298;2022-10-13T08:59:04;1033.7;;;8.7;65.4
57799;BME280;43626;53.866;30.298;2022-10-13T09:04:09;1033.7;;;8.8;65.6
57799;BME280;43626;53.866;30.298;2022-10-13T09:09:09;1033.7;;;8.9;65.2
57799;BME280;43626;53.866;30.298;2022-10-13T09:14:18;1033.7;;;9;65
57799;BME280;43626;53.866;30.298;2022-10-13T09:19:19;1033.7;;;9.2;64.7
57799;BME280;43626;53.866;30.298;2022-10-13T09:24:28;1033.7;;;9.3;64.6
57799;BME280;43626;53.866;30.298;2022-10-13T09:28:44;1033.7;;;9.4;64.8
57799;BME280;43626;53.866;30.298;2022-10-13T09:34:26;1033.7;;;9.6;64.7
57799;BME280;43626;53.866;30.298;2022-10-13T09:38:43;1033.6;;;9.8;64.2
57799;BME280;43626;53.866;30.298;2022-10-13T09:43:57;1033.6;;;9.9;64.1
57799;BME280;43626;53.866;30.298;2022-10-13T09:49:28;1033.6;;;10;63.9
57799;BME280;43626;53.866;30.298;2022-10-13T09:54:24;1033.6;;;10.1;62.8
57799;BME280;43626;53.866;30.298;2022-10-13T09:59:06;1033.6;;;10.2;62.3
57799;BME280;43626;53.866;30.298;2022-10-13T10:04:15;1033.6;;;10.3;62.2
57799;BME280;43626;53.866;30.298;2022-10-13T10:09:15;1033.5;;;10.4;61.4
57799;BME280;43626;53.866;30.298;2022-10-13T10:14:09;1033.5;;;10.5;60.1
57799;BME280;43626;53.866;30.298;2022-10-13T10:19:19;1033.5;;;10.4;60.4
57799;BME280;43626;53.866;30.298;2022-10-13T10:24:29;1033.5;;;10.4;60.8
57799;BME280;43626;53.866;30.298;2022-10-13T10:28:46;1033.4;;;10.4;60.9
57799;BME280;43626;53.866;30.298;2022-10-13T10:33:55;1033.4;;;10.5;60.8
57799;BME280;43626;53.866;30.298;2022-10-13T10:39:27;1033.4;;;10.8;60.2
57799;BME280;43626;53.866;30.298;2022-10-13T10:44:28;1033.4;;;10.9;59.4
57799;BME280;43626;53.866;30.298;2022-10-13T10:49:29;1033.4;;;10.9;58.2
57799;BME280;43626;53.866;30.298;2022-10-13T10:54:18;1033.4;;;10.8;57.5
57799;BME280;43626;53.866;30.298;2022-10-13T10:59:34;1033.3;;;10.8;57.4
57799;BME280;43626;53.866;30.298;2022-10-13T11:04:31;1033.3;;;10.7;57
57799;BME280;43626;53.866;30.298;2022-10-13T11:09:02;1033.2;;;10.7;56.7
57799;BME280;43626;53.866;30.298;2022-10-13T11:14:20;1033.2;;;10.8;56.5
57799;BME280;43626;53.866;30.298;2022-10-13T11:18:58;1033.2;;;11;56.1
57799;BME280;43626;53.866;30.298;2022-10-13T11:24:00;1033.1;;;11.2;55
57799;BME280;43626;53.866;30.298;2022-10-13T11:28:44;1033.1;;;11.4;54.3
57799;BME280;43626;53.866;30.298;2022-10-13T11:33:58;1033.1;;;11.5;53.7
57799;BME280;43626;53.866;30.298;2022-10-13T11:39:30;1033;;;11.6;53.2
57799;BME280;43626;53.866;30.298;2022-10-13T11:43:45;1033;;;11.7;51.5
57799;BME280;43626;53.866;30.298;2022-10-13T11:48:56;1033;;;11.6;51.1
57799;BME280;43626;53.866;30.298;2022-10-13T11:54:30;1033;;;11.7;50.5
57799;BME280;43626;53.866;30.298;2022-10-13T11:59:29;1032.9;;;11.8;49.5
57799;BME280;43626;53.866;30.298;2022-10-13T12:04:30;1032.9;;;11.8;49.5
57799;BME280;43626;53.866;30.298;2022-10-13T12:08:44;1032.8;;;11.9;49.6
57799;BME280;43626;53.866;30.298;2022-10-13T12:13:43;1032.8;;;12.1;50.1
57799;BME280;43626;53.866;30.298;2022-10-13T12:19:27;1032.8;;;12.2;49.5
57799;BME280;43626;53.866;30.298;2022-10-13T12:24:16;1032.8;;;12.3;49.9
57799;BME280;43626;53.866;30.298;2022-10-13T12:29:07;1032.7;;;12.3;49.7
57799;BME280;43626;53.866;30.298;2022-10-13T12:34:18;1032.7;;;12.3;49.4
57799;BME280;43626;53.866;30.298;2022-10-13T12:39:12;1032.7;;;12.1;49.5
57799;BME280;43626;53.866;30.298;2022-10-13T12:44:15;1032.6;;;12.1;49.6
57799;BME280;43626;53.866;30.298;2022-10-13T12:49:19;1032.6;;;12.1;48.5
57799;BME280;43626;53.866;30.298;2022-10-13T12:54:29;1032.6;;;12;48.1
57799;BME280;43626;53.866;30.298;2022-10-13T12:58:52;1032.6;;;11.9;48.3
57799;BME280;43626;53.866;30.298;2022-10-13T13:03:42;1032.6;;;11.9;48.1
57799;BME280;43626;53.866;30.298;2022-10-13T13:09:25;1032.5;;;11.8;48.3
57799;BME280;43626;53.866;30.298;2022-10-13T13:14:35;1032.5;;;11.8;47.8
57799;BME280;43626;53.866;30.298;2022-10-13T13:19:29;1032.5;;;11.9;48
57799;BME280;43626;53.866;30.298;2022-10-13T13:24:02;1032.5;;;11.9;47.5
57799;BME280;43626;53.866;30.298;2022-10-13T13:29:26;1032.5;;;11.9;47.2
57799;BME280;43626;53.866;30.298;2022-10-13T13:34:28;1032.5;;;11.9;47
57799;BME280;43626;53.866;30.298;2022-10-13T13:38:52;1032.4;;;11.8;47.1
57799;BME280;43626;53.866;30.298;2022-10-13T13:44:02;1032.4;;;11.8;47.3
57799;BME280;43626;53.866;30.298;2022-10-13T13:48:54;1032.4;;;11.7;47.6
57799;BME280;43626;53.866;30.298;2022-10-13T13:53:42;1032.4;;;11.5;47.9
57799;BME280;43626;53.866;30.298;2022-10-13T13:59:04;1032.4;;;11.5;48
57799;BME280;43626;53.866;30.298;2022-10-13T14:04:26;1032.4;;;11.6;48.2
57799;BME280;43626;53.866;30.298;2022-10-13T14:09:26;1032.4;;;11.6;48.2
57799;BME280;43626;53.866;30.298;2022-10-13T14:14:14;1032.5;;;11.5;48.7
57799;BME280;43626;53.866;30.298;2022-10-13T14:18:55;1032.4;;;11.4;49
57799;BME280;43626;53.866;30.298;2022-10-13T14:24:28;1032.4;;;11.3;49.2
57799;BME280;43626;53.866;30.298;2022-10-13T14:29:14;1032.5;;;11.2;49.6
57799;BME280;43626;53.866;30.298;2022-10-13T14:34:28;1032.5;;;11.1;50.2
57799;BME280;43626;53.866;30.298;2022-10-13T14:38:42;1032.4;;;11;50.7
57799;BME280;43626;53.866;30.298;2022-10-13T14:43:52;1032.4;;;10.8;51.8
57799;BME280;43626;53.866;30.298;2022-10-13T14:49:26;1032.4;;;10.6;52.8
57799;BME280;43626;53.866;30.298;2022-10-13T14:54:16;1032.5;;;10.4;53.9
57799;BME280;43626;53.866;30.298;2022-10-13T14:58:42;1032.5;;;10.1;54.8
57799;BME280;43626;53.866;30.298;2022-10-13T15:04:16;1032.5;;;10;55.3
57799;BME280;43626;53.866;30.298;2022-10-13T15:09:14;1032.5;;;9.8;55.6
57799;BME280;43626;53.866;30.298;2022-10-13T15:13:42;1032.5;;;9.6;55.7
57799;BME280;43626;53.866;30.298;2022-10-13T15:19:16;1032.5;;;9.5;56
57799;BME280;43626;53.866;30.298;2022-10-13T15:24:30;1032.5;;;9.3;56.2
57799;BME280;43626;53.866;30.298;2022-10-13T15:28:54;1032.5;;;9.1;56.4
57799;BME280;43626;53.866;30.298;2022-10-13T15:33:54;1032.5;;;8.9;56.8
57799;BME280;43626;53.866;30.298;2022-10-13T15:39:28;1032.6;;;8.7;57.4
57799;BME280;43626;53.866;30.298;2022-10-13T15:44:28;1032.6;;;8.5;57.9
57799;BME280;43626;53.866;30.298;2022-10-13T15:49:28;1032.6;;;8.3;58.6
57799;BME280;43626;53.866;30.298;2022-10-13T15:54:02;1032.6;;;8.1;59
57799;BME280;43626;53.866;30.298;2022-10-13T15:59:28;1032.6;;;8;59
57799;BME280;43626;53.866;30.298;2022-10-13T16:04:30;1032.6;;;7.9;59.3
57799;BME280;43626;53.866;30.298;2022-10-13T16:08:52;1032.6;;;7.8;59.4
57799;BME280;43626;53.866;30.298;2022-10-13T16:14:02;1032.6;;;7.7;59.3
57799;BME280;43626;53.866;30.298;2022-10-13T16:18:52;1032.6;;;7.6;59.8
57799;BME280;43626;53.866;30.298;2022-10-13T16:23:42;1032.6;;;7.6;59.5
57799;BME280;43626;53.866;30.298;2022-10-13T16:29:04;1032.6;;;7.4;59.4
57799;BME280;43626;53.866;30.298;2022-10-13T16:34:04;1032.7;;;7.3;59.4
57799;BME280;43626;53.866;30.298;2022-10-13T16:39:26;1032.7;;;7.2;59.3
57799;BME280;43626;53.866;30.298;2022-10-13T16:44:10;1032.7;;;7;59.9
57799;BME280;43626;53.866;30.298;2022-10-13T16:49:02;1032.7;;;6.9;60.2
57799;BME280;43626;53.866;30.298;2022-10-13T16:54:26;1032.7;;;6.8;60.1
57799;BME280;43626;53.866;30.298;2022-10-13T16:59:05;1032.6;;;6.7;60.5
57799;BME280;43626;53.866;30.298;2022-10-13T17:04:26;1032.6;;;6.6;60.6
57799;BME280;43626;53.866;30.298;2022-10-13T17:08:42;1032.6;;;6.6;60.3
57799;BME280;43626;53.866;30.298;2022-10-13T17:13:42;1032.6;;;6.6;60.4
57799;BME280;43626;53.866;30.298;2022-10-13T17:19:26;1032.6;;;6.6;61.6
57799;BME280;43626;53.866;30.298;2022-10-13T17:24:15;1032.6;;;6.6;60.7
57799;BME280;43626;53.866;30.298;2022-10-13T17:29:04;1032.6;;;6.5;60.4
57799;BME280;43626;53.866;30.298;2022-10-13T17:34:16;1032.6;;;6.4;60.1
57799;BME280;43626;53.866;30.298;2022-10-13T17:39:14;1032.6;;;6.3;60
57799;BME280;43626;53.866;30.298;2022-10-13T17:44:04;1032.6;;;6.2;60.3
57799;BME280;43626;53.866;30.298;2022-10-13T17:49:18;1032.6;;;6.1;60.9
57799;BME280;43626;53.866;30.298;2022-10-13T17:54:30;1032.6;;;6.1;61.8
57799;BME280;43626;53.866;30.298;2022-10-13T17:58:42;1032.6;;;6;60.9
57799;BME280;43626;53.866;30.298;2022-10-13T18:03:42;1032.6;;;5.9;60.8
57799;BME280;43626;53.866;30.298;2022-10-13T18:09:26;1032.6;;;5.8;60.5
57799;BME280;43626;53.866;30.298;2022-10-13T18:14:26;1032.6;;;5.8;60.5
57799;BME280;43626;53.866;30.298;2022-10-13T18:19:26;1032.6;;;5.7;60.3
57799;BME280;43626;53.866;30.298;2022-10-13T18:23:54;1032.7;;;5.6;60.5
57799;BME280;43626;53.866;30.298;2022-10-13T18:29:24;1032.7;;;5.5;60.3
57799;BME280;43626;53.866;30.298;2022-10-13T18:34:28;1032.7;;;5.5;60.1
57799;BME280;43626;53.866;30.298;2022-10-13T18:39:03;1032.7;;;5.3;59.8
57799;BME280;43626;53.866;30.298;2022-10-13T18:43:50;1032.8;;;5.2;59.8
57799;BME280;43626;53.866;30.298;2022-10-13T18:49:05;1032.8;;;5.1;60.1
57799;BME280;43626;53.866;30.298;2022-10-13T18:53:52;1032.8;;;5;60.3
57799;BME280;43626;53.866;30.298;2022-10-13T18:59:16;1032.8;;;5;60
57799;BME280;43626;53.866;30.298;2022-10-13T19:04:26;1032.9;;;4.9;59.5
57799;BME280;43626;53.866;30.298;2022-10-13T19:09:24;1032.9;;;4.8;59.9
57799;BME280;43626;53.866;30.298;2022-10-13T19:14:05;1032.9;;;4.8;60
57799;BME280;43626;53.866;30.298;2022-10-13T19:18:54;1032.9;;;4.7;60
57799;BME280;43626;53.866;30.298;2022-10-13T19:24:26;1032.9;;;4.7;60.1
57799;BME280;43626;53.866;30.298;2022-10-13T19:29:16;1032.9;;;4.7;60.3
57799;BME280;43626;53.866;30.298;2022-10-13T19:34:26;1032.9;;;4.6;60.1
57799;BME280;43626;53.866;30.298;2022-10-13T19:39:03;1032.8;;;4.5;60.1
57799;BME280;43626;53.866;30.298;2022-10-13T19:43:52;1032.9;;;4.5;59.9
57799;BME280;43626;53.866;30.298;2022-10-13T19:49:24;1032.9;;;4.4;59.7
57799;BME280;43626;53.866;30.298;2022-10-13T19:53:52;1032.9;;;4.4;60
57799;BME280;43626;53.866;30.298;2022-10-13T19:58:42;1032.9;;;4.3;60.2
57799;BME280;43626;53.866;30.298;2022-10-13T20:04:16;1032.9;;;4.3;60.2
57799;BME280;43626;53.866;30.298;2022-10-13T20:09:14;1032.9;;;4.2;61.2
57799;BME280;43626;53.866;30.298;2022-10-13T20:13:48;1032.9;;;4.2;61.4
57799;BME280;43626;53.866;30.298;2022-10-13T20:19:16;1033;;;4.2;61.4
57799;BME280;43626;53.866;30.298;2022-10-13T20:24:28;1033;;;4.1;62.1
57799;BME280;43626;53.866;30.298;2022-10-13T20:28:43;1033;;;4.1;62.3
57799;BME280;43626;53.866;30.298;2022-10-13T20:33:52;1033;;;4;62.1
57799;BME280;43626;53.866;30.298;2022-10-13T20:39:28;1033;;;4;62
57799;BME280;43626;53.866;30.298;2022-10-13T20:44:28;1033.1;;;3.9;61.8
57799;BME280;43626;53.866;30.298;2022-10-13T20:49:26;1033.1;;;3.9;61.3
57799;BME280;43626;53.866;30.298;2022-10-13T20:53:52;1033.1;;;3.8;61.3
57799;BME280;43626;53.866;30.298;2022-10-13T20:59:07;1033.1;;;3.8;61.2
57799;BME280;43626;53.866;30.298;2022-10-13T21:04:16;1033.1;;;3.8;61.1
57799;BME280;43626;53.866;30.298;2022-10-13T21:09:26;1033.1;;;3.7;61.6
57799;BME280;43626;53.866;30.298;2022-10-13T21:14:02;1033.1;;;3.7;62
57799;BME280;43626;53.866;30.298;2022-10-13T21:18:52;1033.1;;;3.6;62.4
57799;BME280;43626;53.866;30.298;2022-10-13T21:24:05;1033.1;;;3.6;62.3
57799;BME280;43626;53.866;30.298;2022-10-13T21:29:06;1033.1;;;3.6;61.9
57799;BME280;43626;53.866;30.298;2022-10-13T21:34:06;1033.1;;;3.5;61.9
57799;BME280;43626;53.866;30.298;2022-10-13T21:38:55;1033;;;3.5;61.8
57799;BME280;43626;53.866;30.298;2022-10-13T21:44:14;1033.1;;;3.4;61.4
57799;BME280;43626;53.866;30.298;2022-10-13T21:49:28;1033.1;;;3.4;61.2
57799;BME280;43626;53.866;30.298;2022-10-13T21:54:07;1033.1;;;3.4;61.5
57799;BME280;43626;53.866;30.298;2022-10-13T21:59:28;1033.1;;;3.4;61.5
57799;BME280;43626;53.866;30.298;2022-10-13T22:04:28;1033.1;;;3.3;61.3
57799;BME280;43626;53.866;30.298;2022-10-13T22:08:51;1033.1;;;3.3;61
57799;BME280;43626;53.866;30.298;2022-10-13T22:13:53;1033.1;;;3.3;61
57799;BME280;43626;53.866;30.298;2022-10-13T22:19:17;1033.2;;;3.2;61.2
57799;BME280;43626;53.866;30.298;2022-10-13T22:24:30;1033.1;;;3.1;61.1
57799;BME280;43626;53.866;30.298;2022-10-13T22:29:19;1033.2;;;3.1;61.1
57799;BME280;43626;53.866;30.298;2022-10-13T22:34:20;1033.2;;;3;60.8
57799;BME280;43626;53.866;30.298;2022-10-13T22:39:20;1033.2;;;3;60.8
57799;BME280;43626;53.866;30.298;2022-10-13T22:44:16;1033.2;;;3;61.2
57799;BME280;43626;53.866;30.298;2022-10-13T22:49:04;1033.2;;;2.9;61.2
57799;BME280;43626;53.866;30.298;2022-10-13T22:54:18;1033.3;;;2.9;61
57799;BME280;43626;53.866;30.298;2022-10-13T22:59:05;1033.3;;;2.9;61
57799;BME280;43626;53.866;30.298;2022-10-13T23:04:14;1033.2;;;2.9;61.1
57799;BME280;43626;53.866;30.298;2022-10-13T23:08:42;1033.2;;;2.9;61
57799;BME280;43626;53.866;30.298;2022-10-13T23:14:28;1033.3;;;2.8;60.9
57799;BME280;43626;53.866;30.298;2022-10-13T23:19:08;1033.2;;;2.8;60.9
57799;BME280;43626;53.866;30.298;2022-10-13T23:24:05;1033.2;;;2.7;60.7
57799;BME280;43626;53.866;30.298;2022-10-13T23:28:40;1033.3;;;2.7;60.5
57799;BME280;43626;53.866;30.298;2022-10-13T23:34:24;1033.3;;;2.7;60.5
57799;BME280;43626;53.866;30.298;2022-10-13T23:39:08;1033.3;;;2.6;60.4
57799;BME280;43626;53.866;30.298;2022-10-13T23:43:50;1033.2;;;2.6;60.1
57799;BME280;43626;53.866;30.298;2022-10-13T23:48:40;1033.3;;;2.6;60.2
57799;BME280;43626;53.866;30.298;2022-10-13T23:53:41;1033.3;;;2.6;60.3
57799;BME280;43626;53.866;30.298;2022-10-13T23:58:52;1033.3;;;2.6;60.5
